createdAt,value
2018-04-29T00:01:23.676Z,98.20
2018-04-29T00:03:49.676Z,98.20
2018-04-29T00:06:15.647Z,98.50
2018-04-29T00:08:41.624Z,98.50
2018-04-29T00:11:07.579Z,98.70
2018-04-29T00:13:33.648Z,98.90
2018-04-29T00:15:59.676Z,98.20
2018-04-29T00:18:25.634Z,97.90
2018-04-29T00:20:52.355Z,97.60
2018-04-29T00:23:18.312Z,97.60
2018-04-29T00:25:44.298Z,98.80
2018-04-29T00:28:10.298Z,99.00
2018-04-29T00:30:37.003Z,98.70
2018-04-29T00:33:02.991Z,98.60
2018-04-29T00:35:28.983Z,99.70
2018-04-29T00:37:54.940Z,99.90
2018-04-29T00:40:20.960Z,99.50
2018-04-29T00:42:46.964Z,99.10
2018-04-29T00:45:12.959Z,98.10
2018-04-29T00:47:38.911Z,99.60
2018-04-29T00:50:05.646Z,99.90
2018-04-29T00:52:31.619Z,99.90
2018-04-29T00:54:57.625Z,99.90
2018-04-29T00:57:23.626Z,99.90
2018-04-29T00:59:49.615Z,99.90
2018-04-29T01:02:16.305Z,99.90
2018-04-29T01:04:42.308Z,99.90
2018-04-29T01:07:09.017Z,99.90
2018-04-29T01:09:34.970Z,99.90
2018-04-29T01:12:00.964Z,99.90
2018-04-29T01:14:26.906Z,99.90
2018-04-29T01:16:52.890Z,99.90
2018-04-29T01:19:19.581Z,99.90
2018-04-29T01:21:45.547Z,99.90
2018-04-29T01:24:11.528Z,99.90
2018-04-29T01:26:38.275Z,99.90
2018-04-29T01:29:05.000Z,99.90
2018-04-29T01:31:31.021Z,99.90
2018-04-29T01:33:57.036Z,99.90
2018-04-29T01:36:23.026Z,99.90
2018-04-29T01:38:48.979Z,99.90
2018-04-29T01:41:15.712Z,99.90
2018-04-29T01:43:41.663Z,99.90
2018-04-29T01:46:08.401Z,99.90
2018-04-29T01:48:34.387Z,99.90
2018-04-29T01:51:00.398Z,99.90
2018-04-29T01:53:26.391Z,99.90
2018-04-29T01:55:52.344Z,99.90
2018-04-29T01:58:19.175Z,99.90
2018-04-29T02:00:45.223Z,99.90
2018-04-29T02:03:11.192Z,99.90
2018-04-29T02:05:45.033Z,99.90
2018-04-29T02:08:10.993Z,99.90
2018-04-29T02:10:36.988Z,99.90
2018-04-29T02:13:04.221Z,99.90
2018-04-29T02:15:30.983Z,99.90
2018-04-29T02:17:56.944Z,99.90
2018-04-29T02:20:24.679Z,99.90
2018-04-29T02:22:50.641Z,99.90
2018-04-29T02:25:17.567Z,99.90
2018-04-29T02:27:43.515Z,99.90
2018-04-29T02:30:09.503Z,99.90
2018-04-29T02:32:42.572Z,99.90
2018-04-29T02:35:08.523Z,99.90
2018-04-29T02:37:35.264Z,99.90
2018-04-29T02:40:02.005Z,99.90
2018-04-29T02:42:28.015Z,99.90
2018-04-29T02:44:54.039Z,99.90
2018-04-29T02:47:20.011Z,99.90
2018-04-29T02:49:46.008Z,99.90
2018-04-29T02:52:11.960Z,99.90
2018-04-29T02:54:38.000Z,99.90
2018-04-29T02:57:03.982Z,99.90
2018-04-29T02:59:30.773Z,99.90
2018-04-29T03:01:56.745Z,99.90
2018-04-29T03:04:22.731Z,99.90
2018-04-29T03:06:49.701Z,99.90
2018-04-29T03:09:15.673Z,99.90
2018-04-29T03:11:41.680Z,99.90
2018-04-29T03:14:07.663Z,99.90
2018-04-29T03:16:35.135Z,99.90
2018-04-29T03:19:01.105Z,99.90
2018-04-29T03:21:27.111Z,99.90
2018-04-29T03:23:53.827Z,99.90
2018-04-29T03:26:19.832Z,99.90
2018-04-29T03:28:45.835Z,99.90
2018-04-29T03:31:11.807Z,99.90
2018-04-29T03:33:37.827Z,99.90
2018-04-29T03:36:03.846Z,99.90
2018-04-29T03:38:30.614Z,99.90
2018-04-29T03:40:57.346Z,99.90
2018-04-29T03:43:23.336Z,99.90
2018-04-29T03:45:49.288Z,99.90
2018-04-29T03:48:15.272Z,99.90
2018-04-29T03:50:41.303Z,99.90
2018-04-29T03:53:08.003Z,99.90
2018-04-29T03:55:34.033Z,99.90
2018-04-29T03:58:12.399Z,99.90
2018-04-29T04:00:50.888Z,99.90
2018-04-29T04:03:29.326Z,99.90
2018-04-29T04:05:56.113Z,99.90
2018-04-29T04:08:22.085Z,99.90
2018-04-29T04:10:48.065Z,99.90
2018-04-29T04:13:14.050Z,99.90
2018-04-29T04:15:40.752Z,99.90
2018-04-29T04:18:06.783Z,99.90
2018-04-29T04:20:32.767Z,99.90
2018-04-29T04:22:59.524Z,99.90
2018-04-29T04:25:26.219Z,99.90
2018-04-29T04:27:52.223Z,99.90
2018-04-29T04:30:18.942Z,99.90
2018-04-29T04:32:44.939Z,99.90
2018-04-29T04:35:10.944Z,99.90
2018-04-29T04:37:37.669Z,99.90
2018-04-29T04:40:03.696Z,99.90
2018-04-29T04:42:29.689Z,99.90
2018-04-29T04:44:55.724Z,99.90
2018-04-29T04:47:21.689Z,99.90
2018-04-29T04:49:47.728Z,99.90
2018-04-29T04:52:13.700Z,99.90
2018-04-29T04:54:39.661Z,99.90
2018-04-29T04:57:05.651Z,99.90
2018-04-29T04:59:31.653Z,99.90
2018-04-29T05:01:57.660Z,99.90
2018-04-29T05:04:23.669Z,99.90
2018-04-29T05:06:49.647Z,99.90
2018-04-29T05:09:15.644Z,99.90
2018-04-29T05:11:41.648Z,99.90
2018-04-29T05:14:08.356Z,99.90
2018-04-29T05:16:34.375Z,99.90
2018-04-29T05:19:00.392Z,99.90
2018-04-29T05:21:26.384Z,99.90
2018-04-29T05:23:52.389Z,99.90
2018-04-29T05:26:33.328Z,99.90
2018-04-29T05:29:00.069Z,99.90
2018-04-29T05:31:26.064Z,99.90
2018-04-29T05:33:52.163Z,99.90
2018-04-29T05:36:18.153Z,99.90
2018-04-29T05:38:44.116Z,99.90
2018-04-29T05:41:10.154Z,99.90
2018-04-29T05:43:36.118Z,99.90
2018-04-29T05:46:02.868Z,99.90
2018-04-29T05:48:29.620Z,99.90
2018-04-29T05:50:56.365Z,99.90
2018-04-29T05:53:23.105Z,99.90
2018-04-29T05:55:49.119Z,99.90
2018-04-29T05:58:15.105Z,99.90
2018-04-29T06:00:41.148Z,99.90
2018-04-29T06:03:07.839Z,99.90
2018-04-29T06:05:33.837Z,99.90
2018-04-29T06:08:00.568Z,99.90
2018-04-29T06:10:26.556Z,99.90
2018-04-29T06:12:53.366Z,99.90
2018-04-29T06:15:19.327Z,99.90
2018-04-29T06:20:35.738Z,99.90
2018-04-29T06:23:01.689Z,99.90
2018-04-29T06:25:28.412Z,99.90
2018-04-29T06:27:54.377Z,99.90
2018-04-29T06:30:21.110Z,99.90
2018-04-29T06:32:47.108Z,99.90
2018-04-29T06:35:13.164Z,99.90
2018-04-29T06:37:39.116Z,99.90
2018-04-29T06:40:05.120Z,99.90
2018-04-29T06:42:31.827Z,99.90
2018-04-29T06:44:58.428Z,99.90
2018-04-29T06:47:24.399Z,99.90
2018-04-29T06:49:50.427Z,99.90
2018-04-29T06:52:16.423Z,99.90
2018-04-29T06:54:42.438Z,99.90
2018-04-29T06:57:08.401Z,99.90
2018-04-29T06:59:35.144Z,99.90
2018-04-29T07:02:01.112Z,99.90
2018-04-29T07:04:27.071Z,99.90
2018-04-29T07:06:53.065Z,99.90
2018-04-29T07:09:19.050Z,99.90
2018-04-29T07:11:45.095Z,99.90
2018-04-29T07:14:11.101Z,99.90
2018-04-29T07:16:37.056Z,99.90
2018-04-29T07:19:04.582Z,98.90
2018-04-29T07:21:30.589Z,98.90
2018-04-29T07:23:56.557Z,99.00
2018-04-29T07:26:22.552Z,99.80
2018-04-29T07:28:48.504Z,99.90
2018-04-29T07:31:14.627Z,99.40
2018-04-29T07:33:40.591Z,98.20
2018-04-29T07:36:06.608Z,98.10
2018-04-29T07:38:32.580Z,97.20
2018-04-29T07:40:58.566Z,98.20
2018-04-29T07:43:25.316Z,97.60
2018-04-29T07:45:52.064Z,95.60
2018-04-29T07:48:18.806Z,96.30
2018-04-29T07:50:45.373Z,96.60
2018-04-29T07:53:12.157Z,94.80
2018-04-29T07:55:38.107Z,94.80
2018-04-29T07:58:04.122Z,94.90
2018-04-29T08:00:30.089Z,95.80
2018-04-29T08:02:56.080Z,94.90
2018-04-29T08:05:22.817Z,94.70
2018-04-29T08:07:48.812Z,94.70
2018-04-29T08:10:14.764Z,93.50
2018-04-29T08:12:40.751Z,93.90
2018-04-29T08:15:07.455Z,94.80
2018-04-29T08:17:33.476Z,94.80
2018-04-29T08:19:59.442Z,93.10
2018-04-29T08:22:25.461Z,93.10
2018-04-29T08:24:51.434Z,92.40
2018-04-29T08:27:17.407Z,92.60
2018-04-29T08:29:43.450Z,92.70
2018-04-29T08:32:09.404Z,93.00
2018-04-29T08:34:35.400Z,93.10
2018-04-29T08:37:02.117Z,92.20
2018-04-29T08:39:28.107Z,92.00
2018-04-29T08:41:54.069Z,92.90
2018-04-29T08:44:20.095Z,92.10
2018-04-29T08:46:46.056Z,93.00
2018-04-29T08:49:12.044Z,92.70
2018-04-29T08:51:38.756Z,92.40
2018-04-29T08:54:04.760Z,92.40
2018-04-29T08:56:30.716Z,92.10
2018-04-29T08:58:56.704Z,92.20
2018-04-29T09:01:23.407Z,91.90
2018-04-29T09:03:49.473Z,91.80
2018-04-29T09:06:15.393Z,90.50
2018-04-29T09:08:41.367Z,90.00
2018-04-29T09:11:08.088Z,91.00
2018-04-29T09:13:34.048Z,91.00
2018-04-29T09:16:00.052Z,90.40
2018-04-29T09:18:26.073Z,86.40
2018-04-29T09:20:52.044Z,85.30
2018-04-29T09:23:18.031Z,83.90
2018-04-29T09:25:44.029Z,81.00
2018-04-29T09:28:09.980Z,81.90
2018-04-29T09:30:35.976Z,85.80
2018-04-29T09:33:01.952Z,85.20
2018-04-29T09:35:27.924Z,82.90
2018-04-29T09:37:54.672Z,80.50
2018-04-29T09:40:20.640Z,80.50
2018-04-29T09:42:46.715Z,79.70
2018-04-29T09:45:20.343Z,82.80
2018-04-29T09:47:46.343Z,81.10
2018-04-29T09:50:12.350Z,76.80
2018-04-29T09:52:39.108Z,74.80
2018-04-29T09:55:05.069Z,74.80
2018-04-29T09:57:31.063Z,73.20
2018-04-29T09:59:57.775Z,75.40
2018-04-29T10:02:23.798Z,74.60
2018-04-29T10:04:49.760Z,77.10
2018-04-29T10:07:15.751Z,66.20
2018-04-29T10:09:41.720Z,68.80
2018-04-29T10:12:07.782Z,69.30
2018-04-29T10:14:33.809Z,65.50
2018-04-29T10:16:59.805Z,64.40
2018-04-29T10:19:25.807Z,64.50
2018-04-29T10:21:52.516Z,63.50
2018-04-29T10:24:18.501Z,63.40
2018-04-29T10:26:45.239Z,69.60
2018-04-29T10:29:11.220Z,69.60
2018-04-29T10:31:37.243Z,71.30
2018-04-29T10:34:03.995Z,60.70
2018-04-29T10:36:30.774Z,59.90
2018-04-29T10:38:56.756Z,59.20
2018-04-29T10:41:23.760Z,61.30
2018-04-29T10:43:50.496Z,63.40
2018-04-29T10:46:17.239Z,60.40
2018-04-29T10:48:43.984Z,60.20
2018-04-29T10:51:09.946Z,59.70
2018-04-29T10:53:35.935Z,64.40
2018-04-29T10:56:01.981Z,64.90
2018-04-29T10:58:27.969Z,64.30
2018-04-29T11:00:54.672Z,60.70
2018-04-29T11:03:20.668Z,60.70
2018-04-29T11:05:47.375Z,60.70
2018-04-29T11:08:14.129Z,58.10
2018-04-29T11:10:40.116Z,58.00
2018-04-29T11:13:06.070Z,60.40
2018-04-29T11:15:32.104Z,59.10
2018-04-29T11:17:58.109Z,64.80
2018-04-29T11:20:24.096Z,62.50
2018-04-29T11:22:50.670Z,62.70
2018-04-29T11:25:16.668Z,60.10
2018-04-29T11:27:42.655Z,62.90
2018-04-29T11:30:08.612Z,57.10
2018-04-29T11:32:34.612Z,57.10
2018-04-29T11:35:01.505Z,59.70
2018-04-29T11:37:27.502Z,59.10
2018-04-29T11:39:53.463Z,62.00
2018-04-29T11:42:19.447Z,57.70
2018-04-29T11:44:46.147Z,59.40
2018-04-29T11:47:12.168Z,59.30
2018-04-29T11:49:38.124Z,58.30
2018-04-29T11:52:04.628Z,58.70
2018-04-29T11:54:31.362Z,56.80
2018-04-29T11:56:57.362Z,56.70
2018-04-29T11:59:23.347Z,57.10
2018-04-29T12:01:50.154Z,56.40
2018-04-29T12:04:16.866Z,56.90
2018-04-29T12:06:42.832Z,56.90
2018-04-29T12:09:08.819Z,57.30
2018-04-29T12:11:34.840Z,60.60
2018-04-29T12:14:01.576Z,56.90
2018-04-29T12:16:27.561Z,56.90
2018-04-29T12:18:54.329Z,55.20
2018-04-29T12:21:21.069Z,52.40
2018-04-29T12:23:47.751Z,54.10
2018-04-29T12:26:13.707Z,54.10
2018-04-29T12:28:39.695Z,53.90
2018-04-29T12:31:06.435Z,48.60
2018-04-29T12:33:32.459Z,48.50
2018-04-29T12:35:58.433Z,46.90
2018-04-29T12:38:25.140Z,42.50
2018-04-29T12:40:51.101Z,42.30
2018-04-29T12:43:17.137Z,39.50
2018-04-29T12:45:43.088Z,38.80
2018-04-29T12:48:09.803Z,36.30
2018-04-29T12:50:35.755Z,36.20
2018-04-29T12:53:01.773Z,34.20
2018-04-29T12:55:27.769Z,34.40
2018-04-29T12:57:53.774Z,32.40
2018-04-29T13:00:19.809Z,33.00
2018-04-29T13:02:46.626Z,34.50
2018-04-29T13:05:12.590Z,36.80
2018-04-29T13:07:38.591Z,38.60
2018-04-29T13:10:04.560Z,36.90
2018-04-29T13:12:30.544Z,35.20
2018-04-29T13:14:56.544Z,35.60
2018-04-29T13:17:22.512Z,35.70
2018-04-29T13:19:48.533Z,34.40
2018-04-29T13:22:15.255Z,37.60
2018-04-29T13:24:41.243Z,37.60
2018-04-29T13:27:07.206Z,37.10
2018-04-29T13:29:33.257Z,34.00
2018-04-29T13:31:59.907Z,29.60
2018-04-29T13:34:25.873Z,29.60
2018-04-29T13:36:52.595Z,36.40
2018-04-29T13:39:18.556Z,36.30
2018-04-29T13:41:45.899Z,34.70
2018-04-29T13:44:13.842Z,34.70
2018-04-29T13:46:39.856Z,34.60
2018-04-29T13:49:06.552Z,36.50
2018-04-29T13:51:32.545Z,36.40
2018-04-29T13:53:59.285Z,32.00
2018-04-29T13:56:25.260Z,31.30
2018-04-29T13:58:51.327Z,29.60
2018-04-29T14:01:17.984Z,28.90
2018-04-29T14:03:43.980Z,28.90
2018-04-29T14:06:09.973Z,28.40
2018-04-29T14:08:35.941Z,28.50
2018-04-29T14:11:01.929Z,28.60
2018-04-29T14:13:27.923Z,28.00
2018-04-29T14:15:53.918Z,27.60
2018-04-29T14:18:19.940Z,28.20
2018-04-29T14:20:45.931Z,30.90
2018-04-29T14:23:11.947Z,33.30
2018-04-29T14:25:38.672Z,33.10
2018-04-29T14:28:04.658Z,32.20
2018-04-29T14:30:30.676Z,31.10
2018-04-29T14:32:57.404Z,32.90
2018-04-29T14:35:24.128Z,35.20
2018-04-29T14:37:50.148Z,35.10
2018-04-29T14:40:16.108Z,33.80
2018-04-29T14:42:42.085Z,33.20
2018-04-29T14:45:08.820Z,40.80
2018-04-29T14:47:34.840Z,40.60
2018-04-29T14:50:00.940Z,39.90
2018-04-29T14:52:26.924Z,37.00
2018-04-29T14:54:52.907Z,35.60
2018-04-29T14:57:18.874Z,37.00
2018-04-29T14:59:44.924Z,38.40
2018-04-29T15:02:10.925Z,38.40
2018-04-29T15:04:37.007Z,38.40
2018-04-29T15:07:02.980Z,40.20
2018-04-29T15:09:29.613Z,40.80
2018-04-29T15:11:55.631Z,43.20
2018-04-29T15:14:26.388Z,44.60
2018-04-29T15:16:52.378Z,44.50
2018-04-29T15:19:18.397Z,44.20
2018-04-29T15:21:44.579Z,44.60
2018-04-29T15:24:11.239Z,44.90
2018-04-29T15:26:37.223Z,46.50
2018-04-29T15:29:03.217Z,47.40
2018-04-29T15:31:29.224Z,48.50
2018-04-29T15:33:55.191Z,48.30
2018-04-29T15:36:21.195Z,47.80
2018-04-29T15:38:48.076Z,45.80
2018-04-29T15:41:14.834Z,45.80
2018-04-29T15:43:40.895Z,45.70
2018-04-29T15:46:06.924Z,46.50
2018-04-29T15:48:32.904Z,46.40
2018-04-29T15:50:59.013Z,46.80
2018-04-29T15:53:24.987Z,46.80
2018-04-29T15:55:50.988Z,46.80
2018-04-29T15:58:16.975Z,46.50
2018-04-29T16:00:43.007Z,47.10
2018-04-29T16:03:10.049Z,48.60
2018-04-29T16:05:36.092Z,47.60
2018-04-29T16:08:03.145Z,47.90
2018-04-29T16:10:29.435Z,47.60
2018-04-29T16:12:57.254Z,47.50
2018-04-29T16:15:23.227Z,47.50
2018-04-29T16:17:49.279Z,48.10
2018-04-29T16:20:16.040Z,48.00
2018-04-29T16:22:42.033Z,48.00
2018-04-29T16:25:08.004Z,48.30
2018-04-29T16:27:34.064Z,48.60
2018-04-29T16:30:00.068Z,48.70
2018-04-29T16:32:26.517Z,48.60
2018-04-29T16:34:52.507Z,49.90
2018-04-29T16:37:18.529Z,50.60
2018-04-29T16:39:44.615Z,50.80
2018-04-29T16:42:10.647Z,50.60
2018-04-29T16:44:36.709Z,51.30
2018-04-29T16:47:03.471Z,50.90
2018-04-29T16:49:29.497Z,50.90
2018-04-29T16:51:56.291Z,51.90
2018-04-29T16:54:22.296Z,51.90
2018-04-29T16:56:49.047Z,51.90
2018-04-29T16:59:15.054Z,51.80
2018-04-29T17:01:41.056Z,51.60
2018-04-29T17:04:07.100Z,51.90
2018-04-29T17:06:33.082Z,51.90
2018-04-29T17:08:59.073Z,52.30
2018-04-29T17:11:25.117Z,51.70
2018-04-29T17:13:51.080Z,51.30
2018-04-29T17:16:17.812Z,52.50
2018-04-29T17:18:43.813Z,52.50
2018-04-29T17:21:09.788Z,52.70
2018-04-29T17:23:35.771Z,52.40
2018-04-29T17:26:01.796Z,52.30
2018-04-29T17:28:27.819Z,52.80
2018-04-29T17:30:53.798Z,53.60
2018-04-29T17:33:20.520Z,53.50
2018-04-29T17:35:46.499Z,53.50
2018-04-29T17:38:12.527Z,53.30
2018-04-29T17:40:38.455Z,53.40
2018-04-29T17:43:05.485Z,53.90
2018-04-29T17:45:32.560Z,54.00
2018-04-29T17:47:59.304Z,54.00
2018-04-29T17:50:25.316Z,54.00
2018-04-29T17:52:51.676Z,54.20
2018-04-29T17:55:18.472Z,55.20
2018-04-29T17:57:44.443Z,55.20
2018-04-29T18:00:10.505Z,56.00
2018-04-29T18:02:36.577Z,55.80
2018-04-29T18:05:02.623Z,56.00
2018-04-29T18:07:28.584Z,56.20
2018-04-29T18:09:54.539Z,56.30
2018-04-29T18:12:20.543Z,56.80
2018-04-29T18:14:46.521Z,56.70
2018-04-29T18:17:12.562Z,56.80
2018-04-29T18:19:38.588Z,57.00
2018-04-29T18:22:04.573Z,57.60
2018-04-29T18:24:30.598Z,57.80
2018-04-29T18:26:56.568Z,57.80
2018-04-29T18:29:23.984Z,58.00
2018-04-29T18:31:50.785Z,58.50
2018-04-29T18:34:16.763Z,58.50
2018-04-29T18:36:42.768Z,58.30
2018-04-29T18:39:08.721Z,58.30
2018-04-29T18:41:34.672Z,58.70
2018-04-29T18:44:01.394Z,59.30
2018-04-29T18:46:27.379Z,59.30
2018-04-29T18:48:53.372Z,59.30
2018-04-29T18:51:19.453Z,59.60
2018-04-29T18:53:46.128Z,60.10
2018-04-29T18:56:12.874Z,60.40
2018-04-29T18:58:39.593Z,60.50
2018-04-29T19:01:05.544Z,60.50
2018-04-29T19:03:31.538Z,61.10
2018-04-29T19:05:58.467Z,62.00
2018-04-29T19:08:25.263Z,62.50
2018-04-29T19:10:51.265Z,62.50
2018-04-29T19:13:17.219Z,63.50
2018-04-29T19:15:43.195Z,63.40
2018-04-29T19:18:09.196Z,64.20
2018-04-29T19:20:35.279Z,64.70
2018-04-29T19:23:01.277Z,65.50
2018-04-29T19:25:27.256Z,66.00
2018-04-29T19:27:53.268Z,66.20
2018-04-29T19:30:20.003Z,66.80
2018-04-29T19:32:46.752Z,67.30
2018-04-29T19:35:13.452Z,67.40
2018-04-29T19:37:39.439Z,67.40
2018-04-29T19:40:05.397Z,67.30
2018-04-29T19:42:32.635Z,68.30
2018-04-29T19:44:58.628Z,68.20
2018-04-29T19:47:24.632Z,68.30
2018-04-29T19:49:51.348Z,68.60
2018-04-29T19:52:17.320Z,68.40
2018-04-29T19:54:44.070Z,69.40
2018-04-29T19:57:10.781Z,69.30
2018-04-29T19:59:36.777Z,69.30
2018-04-29T20:02:03.489Z,69.10
2018-04-29T20:04:29.504Z,69.10
2018-04-29T20:06:55.471Z,69.10
2018-04-29T20:09:21.461Z,69.90
2018-04-29T20:11:48.475Z,70.20
2018-04-29T20:14:14.459Z,70.70
2018-04-29T20:16:40.423Z,70.70
2018-04-29T20:19:06.488Z,71.30
2018-04-29T20:21:32.496Z,71.80
2018-04-29T20:23:58.465Z,73.10
2018-04-29T20:26:25.156Z,73.50
2018-04-29T20:28:58.340Z,72.70
2018-04-29T20:31:25.096Z,76.00
2018-04-29T20:33:51.897Z,74.90
2018-04-29T20:36:17.905Z,74.80
2018-04-29T20:38:43.927Z,76.30
2018-04-29T20:41:09.973Z,76.40
2018-04-29T20:43:35.955Z,76.00
2018-04-29T20:46:03.431Z,77.00
2018-04-29T20:48:29.490Z,77.70
2018-04-29T20:50:55.398Z,79.80
2018-04-29T20:53:21.403Z,81.10
2018-04-29T20:55:47.419Z,80.80
2018-04-29T20:58:13.384Z,80.60
2018-04-29T21:00:39.370Z,81.00
2018-04-29T21:03:06.084Z,81.30
2018-04-29T21:05:32.069Z,81.30
2018-04-29T21:07:58.823Z,82.50
2018-04-29T21:10:24.816Z,82.50
2018-04-29T21:12:50.801Z,84.70
2018-04-29T21:15:16.761Z,84.30
2018-04-29T21:17:42.750Z,86.20
2018-04-29T21:20:09.466Z,86.60
2018-04-29T21:22:35.456Z,86.00
2018-04-29T21:25:02.221Z,88.00
2018-04-29T21:27:28.224Z,88.00
2018-04-29T21:29:54.189Z,89.50
2018-04-29T21:32:20.229Z,89.20
2018-04-29T21:34:46.208Z,88.60
2018-04-29T21:37:12.199Z,87.80
2018-04-29T21:39:38.156Z,87.90
2018-04-29T21:42:04.155Z,89.20
2018-04-29T21:44:30.888Z,91.00
2018-04-29T21:46:56.856Z,91.00
2018-04-29T21:49:23.582Z,91.20
2018-04-29T21:51:50.431Z,91.20
2018-04-29T21:54:16.397Z,92.10
2018-04-29T21:56:43.119Z,92.60
2018-04-29T21:59:09.084Z,92.60
2018-04-29T22:01:35.812Z,93.20
2018-04-29T22:04:01.795Z,93.20
2018-04-29T22:06:27.755Z,94.50
2018-04-29T22:08:53.760Z,93.70
2018-04-29T22:11:19.765Z,93.40
2018-04-29T22:13:46.480Z,94.70
2018-04-29T22:16:12.474Z,94.70
2018-04-29T22:18:39.183Z,94.30
2018-04-29T22:21:05.164Z,94.30
2018-04-29T22:23:31.896Z,94.90
2018-04-29T22:25:57.903Z,94.90
2018-04-29T22:28:23.888Z,96.50
2018-04-29T22:30:50.627Z,96.50
2018-04-29T22:33:17.367Z,98.20
2018-04-29T22:35:43.360Z,98.00
2018-04-29T22:38:09.320Z,98.00
2018-04-29T22:40:35.299Z,97.00
2018-04-29T22:43:02.023Z,97.00
2018-04-29T22:45:28.004Z,97.00
2018-04-29T22:47:53.972Z,98.80
2018-04-29T22:50:19.979Z,99.90
2018-04-29T22:52:45.919Z,99.90
2018-04-29T22:55:11.918Z,99.90
2018-04-29T22:57:37.935Z,99.90
2018-04-29T23:00:03.924Z,99.90
2018-04-29T23:02:29.904Z,99.90
2018-04-29T23:04:55.860Z,99.90
2018-04-29T23:07:21.852Z,99.90
2018-04-29T23:09:47.816Z,99.90
2018-04-29T23:12:13.798Z,99.90
2018-04-29T23:14:40.523Z,99.90
2018-04-29T23:17:07.918Z,99.90
2018-04-29T23:19:34.627Z,99.90
2018-04-29T23:22:00.589Z,99.90
2018-04-29T23:24:26.576Z,99.90
2018-04-29T23:26:52.563Z,99.90
2018-04-29T23:29:18.544Z,99.90
2018-04-29T23:31:44.507Z,99.90
2018-04-29T23:34:10.496Z,99.90
2018-04-29T23:36:36.520Z,99.90
2018-04-29T23:39:03.223Z,99.90
2018-04-29T23:41:29.204Z,99.90
2018-04-29T23:43:55.932Z,99.90
2018-04-29T23:46:21.899Z,99.90
2018-04-29T23:48:48.643Z,99.90
2018-04-29T23:51:15.392Z,99.90
2018-04-29T23:53:41.387Z,99.90
2018-04-29T23:56:07.390Z,99.90
2018-04-29T23:58:34.116Z,99.90
